Time;durP1;ratioP1;P1;durP2;ratioP2;P2;SDS_P1;SDS_P2;PMS_P1;PMS_P2;Temp;Humidity;BMP_temperature;BMP_pressure;BME280_temperature;BME280_humidity;BME280_pressure;Samples;Min_cycle;Max_cycle;Signal;HPM_P1;HPM_P2
2023/12/11 00:02:20;;;;;;;3.73;0.77;;;10.20;29.90;;;;;;5033799;28;20207;-72
2023/12/11 00:04:46;;;;;;;1.50;0.60;;;10.20;29.00;;;;;;5016116;28;20494;-72
2023/12/11 00:07:12;;;;;;;2.67;0.80;;;10.20;31.10;;;;;;5015303;28;20175;-72
2023/12/11 00:09:37;;;;;;;1.97;0.60;;;10.10;34.90;;;;;;5033835;28;20175;-73
2023/12/11 00:12:03;;;;;;;2.90;1.13;;;10.00;34.20;;;;;;5033852;28;20175;-73
2023/12/11 00:14:28;;;;;;;1.63;0.70;;;10.10;35.70;;;;;;5016306;28;20293;-72
2023/12/11 00:16:54;;;;;;;1.60;0.80;;;10.10;38.80;;;;;;5034191;28;20267;-73
2023/12/11 00:19:19;;;;;;;2.17;0.80;;;10.10;40.30;;;;;;5034059;28;20268;-73
2023/12/11 00:21:45;;;;;;;2.40;0.70;;;10.00;36.90;;;;;;5032439;28;20724;-73
2023/12/11 00:24:10;;;;;;;3.40;0.73;;;10.00;41.30;;;;;;5034516;28;20256;-72
2023/12/11 00:26:36;;;;;;;1.70;0.90;;;9.90;42.60;;;;;;5017269;28;20654;-73
2023/12/11 00:29:02;;;;;;;1.67;0.60;;;9.80;44.60;;;;;;5036830;28;20229;-73
2023/12/11 00:31:27;;;;;;;2.13;0.60;;;9.70;45.50;;;;;;5038197;28;20615;-73
2023/12/11 00:33:53;;;;;;;1.50;0.60;;;9.70;48.00;;;;;;5019645;28;20213;-72
2023/12/11 00:36:18;;;;;;;1.80;0.67;;;9.60;46.60;;;;;;5018855;28;20230;-72
2023/12/11 00:38:44;;;;;;;5.60;1.73;;;9.60;47.30;;;;;;5036308;28;20607;-72
2023/12/11 00:41:09;;;;;;;1.97;0.97;;;9.70;42.30;;;;;;5018554;28;20531;-72
2023/12/11 00:43:35;;;;;;;1.60;0.67;;;9.60;43.20;;;;;;5037976;28;20207;-71
2023/12/11 00:46:00;;;;;;;1.60;0.70;;;9.60;44.50;;;;;;5018497;28;20201;-72
2023/12/11 00:48:26;;;;;;;1.90;0.90;;;9.50;45.30;;;;;;5035383;28;20182;-72
2023/12/11 00:50:51;;;;;;;1.60;0.60;;;9.50;48.30;;;;;;5018445;28;20183;-72
2023/12/11 00:53:17;;;;;;;2.80;0.83;;;9.60;48.90;;;;;;5018694;28;20175;-69
2023/12/11 00:55:42;;;;;;;3.07;1.00;;;9.60;49.40;;;;;;5036544;28;20222;-72
2023/12/11 00:58:09;;;;;;;3.80;1.00;;;9.60;50.20;;;;;;5035880;28;20179;-70
2023/12/11 01:00:34;;;;;;;2.67;1.57;;;9.60;48.30;;;;;;5035913;28;20253;-70
2023/12/11 01:03:00;;;;;;;2.17;0.70;;;9.60;46.20;;;;;;5036353;28;20449;-70
2023/12/11 01:05:26;;;;;;;3.90;0.80;;;9.50;45.00;;;;;;5035691;28;20214;-70
2023/12/11 01:07:52;;;;;;;2.43;1.10;;;9.50;46.90;;;;;;5035053;28;20497;-70
2023/12/11 01:10:17;;;;;;;2.40;0.90;;;9.40;48.60;;;;;;5036136;28;20175;-71
2023/12/11 01:12:43;;;;;;;3.67;1.10;;;9.30;51.70;;;;;;5036074;28;20409;-71
2023/12/11 01:15:11;;;;;;;2.57;1.10;;;9.20;52.00;;;;;;5034945;28;20226;-71
2023/12/11 01:17:36;;;;;;;2.53;1.10;;;9.10;54.90;;;;;;5018161;28;20187;-71
2023/12/11 01:20:02;;;;;;;2.00;1.00;;;9.20;54.80;;;;;;5036289;28;20476;-70
2023/12/11 01:22:28;;;;;;;2.40;1.07;;;9.10;54.60;;;;;;5036123;28;20199;-70
2023/12/11 01:24:53;;;;;;;1.80;0.87;;;9.20;54.80;;;;;;5017739;28;20517;-70
2023/12/11 01:27:19;;;;;;;1.83;0.80;;;9.20;54.80;;;;;;5035870;28;20191;-70
2023/12/11 01:29:45;;;;;;;3.90;0.80;;;9.20;55.50;;;;;;5018222;28;20549;-70
2023/12/11 01:32:10;;;;;;;2.83;0.80;;;9.20;56.70;;;;;;5035400;28;20186;-71
2023/12/11 01:34:36;;;;;;;1.67;0.70;;;9.20;57.30;;;;;;5035695;28;20227;-70
2023/12/11 01:37:01;;;;;;;2.90;1.17;;;9.20;60.10;;;;;;5016825;28;20191;-70
2023/12/11 01:39:27;;;;;;;2.07;0.90;;;9.30;58.70;;;;;;5033799;28;20190;-70
2023/12/11 01:41:52;;;;;;;1.90;0.87;;;9.40;53.30;;;;;;5035009;28;20665;-69
2023/12/11 01:44:18;;;;;;;2.47;1.07;;;9.40;53.50;;;;;;5035528;28;20212;-70
2023/12/11 01:46:44;;;;;;;1.40;0.60;;;9.40;52.20;;;;;;5017640;28;20179;-70
2023/12/11 01:49:10;;;;;;;1.70;0.70;;;9.50;53.90;;;;;;5017187;28;20180;-70
2023/12/11 01:51:36;;;;;;;1.60;0.70;;;9.50;53.00;;;;;;5034711;28;20795;-70
2023/12/11 01:54:02;;;;;;;2.90;1.27;;;9.40;54.00;;;;;;5035158;28;20630;-70
2023/12/11 01:56:28;;;;;;;8.10;0.80;;;9.50;53.70;;;;;;5035556;28;20441;-70
2023/12/11 01:58:53;;;;;;;2.37;0.60;;;9.50;54.80;;;;;;5035440;28;20422;-70
2023/12/11 02:01:25;;;;;;;1.90;0.70;;;9.50;54.70;;;;;;5017292;28;20418;-70
2023/12/11 02:03:51;;;;;;;2.23;1.00;;;9.40;54.70;;;;;;5035318;28;20615;-70
2023/12/11 02:06:17;;;;;;;2.17;1.10;;;9.40;58.50;;;;;;5035199;28;20425;-70
2023/12/11 02:08:45;;;;;;;2.37;0.73;;;9.40;58.00;;;;;;5035342;28;20432;-70
2023/12/11 02:11:12;;;;;;;1.50;0.70;;;9.40;57.90;;;;;;5035679;28;20226;-69
2023/12/11 02:13:39;;;;;;;3.00;0.90;;;9.40;57.10;;;;;;5035149;28;20410;-70
2023/12/11 02:16:05;;;;;;;1.73;0.77;;;9.50;58.00;;;;;;5034988;28;20449;-70
2023/12/11 02:18:31;;;;;;;1.60;0.70;;;9.50;57.30;;;;;;5016180;28;20422;-71
2023/12/11 02:20:56;;;;;;;1.73;0.70;;;9.50;56.40;;;;;;5034106;28;20414;-71
2023/12/11 02:23:38;;;;;;;1.50;0.53;;;9.60;56.10;;;;;;5034540;28;20176;-71
2023/12/11 02:26:15;;;;;;;2.17;0.60;;;9.60;57.50;;;;;;5017789;28;20555;-71
2023/12/11 02:28:41;;;;;;;1.83;0.60;;;9.50;58.90;;;;;;5035228;28;20440;-71
2023/12/11 02:31:07;;;;;;;1.60;0.60;;;9.50;57.60;;;;;;5017175;28;20501;-71
2023/12/11 02:33:33;;;;;;;1.50;0.77;;;9.50;57.80;;;;;;5017494;28;20185;-72
2023/12/11 02:35:58;;;;;;;1.50;0.70;;;9.50;59.00;;;;;;5033799;28;20689;-71
2023/12/11 02:38:24;;;;;;;1.90;0.60;;;9.50;58.50;;;;;;5018340;28;20654;-71
2023/12/11 02:40:49;;;;;;;1.63;0.60;;;9.50;59.30;;;;;;5015790;28;20202;-71
2023/12/11 02:43:15;;;;;;;1.63;0.90;;;9.60;61.10;;;;;;5017184;28;20171;-71
2023/12/11 02:45:42;;;;;;;1.43;0.67;;;9.60;55.90;;;;;;5033553;28;20211;-71
2023/12/11 02:48:08;;;;;;;2.50;0.80;;;9.60;55.70;;;;;;5035745;28;20249;-71
2023/12/11 02:50:34;;;;;;;1.90;0.70;;;9.70;54.80;;;;;;5016081;28;20833;-71
2023/12/11 02:53:02;;;;;;;1.40;0.60;;;9.80;55.20;;;;;;5035190;28;20442;-71
2023/12/11 02:55:28;;;;;;;1.80;0.80;;;9.50;55.20;;;;;;5033867;28;20225;-71
2023/12/11 02:57:57;;;;;;;2.03;0.73;;;9.50;54.90;;;;;;5034594;28;20512;-71
2023/12/11 03:00:22;;;;;;;1.77;0.63;;;9.40;55.00;;;;;;5017656;28;20938;-71
2023/12/11 03:02:48;;;;;;;1.30;0.40;;;9.40;54.80;;;;;;5033576;28;20475;-72
2023/12/11 03:05:13;;;;;;;1.50;0.60;;;9.40;57.80;;;;;;5033353;28;20265;-71
2023/12/11 03:07:39;;;;;;;1.30;0.40;;;9.50;57.70;;;;;;5034305;28;20179;-72
2023/12/11 03:10:05;;;;;;;1.37;0.50;;;9.50;57.30;;;;;;5033687;28;20182;-71
2023/12/11 03:12:30;;;;;;;1.70;0.60;;;9.40;58.90;;;;;;5034034;28;20176;-72
2023/12/11 03:14:56;;;;;;;1.30;0.50;;;9.30;57.10;;;;;;5033616;28;20460;-71
2023/12/11 03:17:21;;;;;;;1.40;0.40;;;9.20;57.60;;;;;;5015498;28;20535;-71
2023/12/11 03:19:47;;;;;;;1.53;0.60;;;9.10;58.20;;;;;;5033868;28;20187;-71
2023/12/11 03:22:12;;;;;;;2.03;0.90;;;9.00;61.30;;;;;;5033159;28;20654;-71
2023/12/11 03:24:38;;;;;;;2.00;0.83;;;8.90;61.20;;;;;;5033048;28;20214;-71
2023/12/11 03:27:03;;;;;;;1.40;0.57;;;8.90;58.60;;;;;;5033260;28;20654;-71
2023/12/11 03:29:29;;;;;;;1.40;0.60;;;8.80;60.40;;;;;;5033661;28;20186;-71
2023/12/11 03:31:55;;;;;;;1.40;0.50;;;8.70;60.50;;;;;;5033816;28;20204;-71
2023/12/11 03:34:20;;;;;;;1.30;0.50;;;8.60;65.20;;;;;;5033963;28;20650;-71
2023/12/11 03:36:46;;;;;;;1.50;0.50;;;8.80;67.70;;;;;;5033117;28;20191;-71
2023/12/11 03:39:12;;;;;;;2.80;0.97;;;8.60;63.80;;;;;;5015770;28;20650;-71
2023/12/11 03:41:38;;;;;;;1.40;0.60;;;8.70;63.50;;;;;;5034842;28;20471;-71
2023/12/11 03:44:04;;;;;;;1.53;0.60;;;8.70;66.10;;;;;;5033384;28;20215;-71
2023/12/11 03:46:30;;;;;;;2.33;0.63;;;8.80;68.30;;;;;;5032215;28;20571;-71
2023/12/11 03:48:55;;;;;;;1.30;0.50;;;8.90;67.90;;;;;;5015535;28;20473;-71
2023/12/11 03:51:21;;;;;;;1.60;0.60;;;9.00;67.70;;;;;;5032186;28;20258;-71
2023/12/11 03:53:46;;;;;;;1.30;0.50;;;8.90;67.40;;;;;;5032005;28;20183;-70
2023/12/11 03:56:12;;;;;;;1.40;0.50;;;8.90;64.70;;;;;;5032380;28;20320;-71
2023/12/11 03:58:37;;;;;;;1.90;0.67;;;8.90;66.30;;;;;;5033614;28;20678;-71
2023/12/11 04:01:03;;;;;;;1.30;0.60;;;9.10;66.50;;;;;;5031847;28;20654;-71
2023/12/11 04:03:28;;;;;;;1.60;0.50;;;9.20;66.30;;;;;;5036743;28;20186;-72
2023/12/11 04:05:54;;;;;;;2.73;0.50;;;9.10;61.30;;;;;;5033586;28;20199;-71
2023/12/11 04:08:19;;;;;;;1.53;0.47;;;9.20;61.40;;;;;;5032620;28;20187;-71
2023/12/11 04:10:45;;;;;;;1.50;0.50;;;9.10;61.30;;;;;;5033131;28;20179;-71
2023/12/11 04:13:10;;;;;;;1.50;0.97;;;9.20;60.90;;;;;;5015562;28;20187;-71
2023/12/11 04:15:36;;;;;;;1.30;0.50;;;9.20;60.20;;;;;;5032065;28;20253;-71
2023/12/11 04:18:01;;;;;;;1.50;0.50;;;9.10;59.90;;;;;;5033560;28;20554;-71
2023/12/11 04:20:27;;;;;;;2.70;1.17;;;9.10;64.80;;;;;;5017445;28;20191;-71
2023/12/11 04:22:52;;;;;;;1.30;0.50;;;9.10;65.10;;;;;;5031796;28;20190;-71
2023/12/11 04:25:18;;;;;;;1.30;0.50;;;9.10;57.00;;;;;;5031561;28;20222;-71
2023/12/11 04:27:44;;;;;;;1.90;0.83;;;9.10;56.70;;;;;;5035517;28;20179;-72
2023/12/11 04:30:10;;;;;;;1.23;0.40;;;9.00;56.60;;;;;;5033461;28;20254;-71
2023/12/11 04:32:35;;;;;;;1.60;0.50;;;9.10;56.60;;;;;;5014063;28;20650;-71
2023/12/11 04:35:01;;;;;;;1.40;0.50;;;9.00;56.40;;;;;;5031530;28;20441;-71
2023/12/11 04:37:26;;;;;;;1.97;1.03;;;9.00;55.70;;;;;;5032784;28;20183;-72
2023/12/11 04:39:52;;;;;;;1.30;0.50;;;9.00;56.10;;;;;;5032054;28;20360;-71
2023/12/11 04:42:17;;;;;;;1.93;0.50;;;9.10;56.20;;;;;;5032886;28;20175;-71
2023/12/11 04:44:43;;;;;;;1.67;0.60;;;9.20;55.80;;;;;;5031654;28;20215;-71
2023/12/11 04:47:08;;;;;;;2.07;0.50;;;9.20;54.40;;;;;;5032666;28;20638;-71
2023/12/11 04:49:34;;;;;;;1.47;0.40;;;9.20;53.60;;;;;;5031513;28;20642;-71
2023/12/11 04:51:59;;;;;;;1.40;0.50;;;9.30;52.60;;;;;;5031855;28;20175;-71
2023/12/11 04:54:25;;;;;;;1.97;0.70;;;9.30;51.90;;;;;;5031452;28;20205;-71
2023/12/11 04:56:51;;;;;;;1.40;0.50;;;9.40;51.90;;;;;;5013331;28;20555;-71
2023/12/11 04:59:16;;;;;;;1.63;0.60;;;9.40;52.00;;;;;;5030962;28;20236;-71
2023/12/11 05:01:42;;;;;;;7.63;0.97;;;9.40;51.80;;;;;;5031443;28;20278;-71
2023/12/11 05:04:08;;;;;;;1.80;0.77;;;9.30;51.70;;;;;;5032787;28;20207;-71
2023/12/11 05:06:33;;;;;;;2.27;0.60;;;9.40;51.70;;;;;;5013028;28;20960;-71
2023/12/11 05:08:59;;;;;;;1.53;0.60;;;9.20;51.20;;;;;;5030272;28;20182;-71
2023/12/11 05:11:24;;;;;;;1.53;0.60;;;9.20;50.60;;;;;;5030318;28;20710;-71
2023/12/11 05:13:50;;;;;;;1.60;0.60;;;9.20;50.60;;;;;;5033530;28;20666;-71
2023/12/11 05:16:16;;;;;;;1.47;0.50;;;9.20;50.40;;;;;;5034331;28;20289;-71
2023/12/11 05:18:41;;;;;;;1.40;0.50;;;9.20;52.30;;;;;;5034143;28;20179;-71
2023/12/11 05:21:10;;;;;;;1.60;0.67;;;9.20;50.50;;;;;;5034131;28;20858;-71
2023/12/11 05:23:36;;;;;;;1.50;0.63;;;9.20;50.10;;;;;;5034269;28;20646;-71
2023/12/11 05:26:02;;;;;;;2.63;0.80;;;9.20;49.80;;;;;;5037716;28;20441;-71
2023/12/11 05:28:28;;;;;;;1.63;0.60;;;9.20;49.80;;;;;;5034171;28;20908;-71
2023/12/11 05:30:53;;;;;;;2.57;0.80;;;9.20;51.60;;;;;;5015820;28;20183;-71
2023/12/11 05:33:19;;;;;;;2.40;0.70;;;9.10;48.70;;;;;;5033824;28;20209;-71
2023/12/11 05:35:44;;;;;;;2.53;0.90;;;9.10;50.10;;;;;;5033945;28;20233;-71
2023/12/11 05:38:10;;;;;;;1.80;0.90;;;9.10;50.10;;;;;;5015727;28;20207;-71
2023/12/11 05:40:35;;;;;;;1.70;0.70;;;9.10;50.10;;;;;;5033410;28;20182;-71
2023/12/11 05:43:01;;;;;;;2.00;1.00;;;9.10;48.00;;;;;;5033569;28;20181;-71
2023/12/11 05:45:27;;;;;;;1.70;0.80;;;9.20;46.80;;;;;;5033273;28;20209;-71
2023/12/11 05:47:52;;;;;;;2.10;0.83;;;9.30;45.70;;;;;;5033300;28;20199;-71
2023/12/11 05:50:18;;;;;;;1.87;0.93;;;9.70;44.10;;;;;;5033655;28;20172;-72
2023/12/11 05:52:44;;;;;;;6.60;0.97;;;9.40;40.70;;;;;;5033055;28;20191;-71
2023/12/11 05:55:10;;;;;;;1.63;0.57;;;9.30;39.90;;;;;;4978888;28;1066859;-71
2023/12/11 05:57:35;;;;;;;1.70;0.70;;;9.40;39.50;;;;;;5018043;28;20187;-70
2023/12/11 06:00:02;;;;;;;1.57;0.70;;;9.40;40.10;;;;;;5034181;28;20191;-70
2023/12/11 06:02:27;;;;;;;1.70;0.80;;;9.50;39.60;;;;;;5016531;28;20234;-71
2023/12/11 06:04:53;;;;;;;1.90;0.83;;;9.50;40.00;;;;;;5034002;28;20473;-71
2023/12/11 06:07:19;;;;;;;1.60;0.80;;;9.60;39.10;;;;;;5016397;28;20176;-69
2023/12/11 06:09:44;;;;;;;2.63;0.90;;;9.60;36.70;;;;;;5016105;28;20191;-70
2023/12/11 06:12:10;;;;;;;1.80;0.57;;;9.60;36.80;;;;;;5033854;28;20262;-70
2023/12/11 06:14:40;;;;;;;2.53;0.60;;;9.60;36.60;;;;;;5033882;28;20222;-70
2023/12/11 06:17:05;;;;;;;1.97;1.10;;;9.60;36.50;;;;;;5033676;28;20175;-70
2023/12/11 06:19:31;;;;;;;3.40;1.13;;;9.60;37.40;;;;;;5016046;28;20422;-70
2023/12/11 06:21:57;;;;;;;2.80;0.83;;;9.60;36.20;;;;;;5034233;28;20175;-70
2023/12/11 06:24:22;;;;;;;3.00;0.50;;;9.60;34.80;;;;;;5034561;28;20294;-70
2023/12/11 06:26:48;;;;;;;2.03;0.60;;;9.60;35.30;;;;;;5015808;28;20453;-71
2023/12/11 06:29:13;;;;;;;1.60;0.53;;;9.60;33.80;;;;;;5034141;28;20245;-70
2023/12/11 06:31:39;;;;;;;1.80;0.63;;;9.60;33.40;;;;;;5033482;28;20592;-70
2023/12/11 06:34:05;;;;;;;1.80;0.87;;;9.70;31.70;;;;;;5034232;28;20190;-69
2023/12/11 06:36:30;;;;;;;2.20;0.93;;;9.70;30.40;;;;;;5033392;28;20694;-69
2023/12/11 06:38:56;;;;;;;2.40;0.90;;;9.90;28.60;;;;;;5033525;28;20505;-70
2023/12/11 06:41:22;;;;;;;1.60;0.63;;;9.90;28.40;;;;;;5033933;28;20186;-70
2023/12/11 06:43:49;;;;;;;1.97;0.60;;;9.90;27.10;;;;;;5033692;28;20646;-69
2023/12/11 06:46:15;;;;;;;2.33;0.90;;;10.00;26.10;;;;;;5033495;28;20568;-69
2023/12/11 06:48:40;;;;;;;1.60;0.47;;;10.00;25.90;;;;;;5033553;28;20414;-69
2023/12/11 06:51:06;;;;;;;1.70;0.70;;;10.00;25.40;;;;;;5032772;28;20414;-69
2023/12/11 06:53:32;;;;;;;1.70;0.60;;;10.10;25.40;;;;;;5034061;28;20187;-70
2023/12/11 06:55:57;;;;;;;3.23;0.80;;;10.10;22.70;;;;;;5033377;28;20244;-69
2023/12/11 06:58:23;;;;;;;2.10;0.60;;;10.20;22.70;;;;;;5032882;28;20245;-70
2023/12/11 07:00:50;;;;;;;1.60;0.60;;;10.20;22.70;;;;;;5015439;28;20263;-69
2023/12/11 07:03:16;;;;;;;1.70;0.70;;;10.20;22.90;;;;;;5032981;28;20180;-70
2023/12/11 07:05:44;;;;;;;2.30;0.87;;;10.20;27.00;;;;;;5033804;28;20527;-70
2023/12/11 07:08:10;;;;;;;2.87;0.90;;;10.20;28.10;;;;;;5033709;28;20179;-69
2023/12/11 07:10:36;;;;;;;2.40;0.70;;;10.20;27.20;;;;;;5033289;28;20889;-70
2023/12/11 07:13:02;;;;;;;3.00;1.00;;;10.30;26.60;;;;;;5035208;28;20418;-69
2023/12/11 07:15:28;;;;;;;2.67;0.90;;;10.30;21.80;;;;;;5032473;28;20256;-70
2023/12/11 07:17:54;;;;;;;2.07;0.90;;;10.30;22.60;;;;;;5032913;28;20501;-70
2023/12/11 07:20:20;;;;;;;4.10;1.20;;;10.30;22.80;;;;;;5032833;28;20424;-70
2023/12/11 07:22:46;;;;;;;4.10;0.63;;;10.40;22.70;;;;;;5034329;28;20426;-69
2023/12/11 07:25:12;;;;;;;1.70;0.60;;;10.40;22.90;;;;;;5033471;28;20283;-71
2023/12/11 07:27:41;;;;;;;4.13;0.70;;;10.40;22.50;;;;;;5015620;28;20429;-71
2023/12/11 07:30:07;;;;;;;2.30;1.27;;;10.40;23.60;;;;;;5032538;28;20425;-71
2023/12/11 07:32:32;;;;;;;4.17;1.23;;;10.40;22.90;;;;;;5032652;28;20418;-71
2023/12/11 07:34:59;;;;;;;2.27;0.90;;;10.50;22.90;;;;;;5032487;28;20916;-70
2023/12/11 07:37:25;;;;;;;2.73;1.23;;;10.50;23.00;;;;;;5033389;28;20654;-71
2023/12/11 07:39:50;;;;;;;1.70;0.80;;;10.50;23.40;;;;;;5032260;28;20458;-72
2023/12/11 07:42:16;;;;;;;1.90;0.70;;;10.50;23.80;;;;;;5032424;28;20183;-70
2023/12/11 07:44:41;;;;;;;3.97;1.63;;;10.50;22.50;;;;;;5031900;28;20227;-71
2023/12/11 07:47:07;;;;;;;1.60;0.57;;;10.60;21.30;;;;;;5032402;28;20182;-71
2023/12/11 07:49:33;;;;;;;1.80;0.63;;;10.60;20.30;;;;;;5033750;28;20250;-71
2023/12/11 07:51:59;;;;;;;1.60;0.60;;;10.60;21.50;;;;;;5032443;28;20188;-71
2023/12/11 07:54:24;;;;;;;1.90;0.63;;;10.70;21.70;;;;;;5032420;28;20202;-71
2023/12/11 07:56:50;;;;;;;2.10;0.90;;;10.70;21.50;;;;;;5014054;28;20464;-70
2023/12/11 07:59:15;;;;;;;1.87;0.80;;;10.80;20.10;;;;;;5030582;28;20647;-71
2023/12/11 08:01:41;;;;;;;1.90;0.70;;;10.80;19.80;;;;;;5013892;28;20217;-71
2023/12/11 08:04:06;;;;;;;2.63;0.70;;;10.80;20.00;;;;;;5020431;28;20709;-71
2023/12/11 08:06:33;;;;;;;5.13;1.10;;;10.70;20.20;;;;;;5036540;28;20192;-70
2023/12/11 08:09:00;;;;;;;2.43;0.83;;;10.60;22.50;;;;;;5031934;28;20212;-70
2023/12/11 08:11:27;;;;;;;2.23;1.13;;;10.50;24.40;;;;;;5039152;28;20438;-71
2023/12/11 08:13:52;;;;;;;6.33;1.40;;;10.40;28.40;;;;;;5038889;28;20553;-71
2023/12/11 08:16:19;;;;;;;1.90;0.90;;;10.40;29.10;;;;;;5032264;28;20446;-71
2023/12/11 08:18:44;;;;;;;1.80;0.60;;;10.30;29.60;;;;;;5016105;28;20634;-71
2023/12/11 08:21:11;;;;;;;4.23;1.00;;;10.30;27.70;;;;;;5035842;28;20426;-71
2023/12/11 08:23:40;;;;;;;2.13;1.10;;;10.30;27.10;;;;;;5032004;28;20191;-70
2023/12/11 08:26:06;;;;;;;2.83;1.10;;;10.20;26.50;;;;;;5032975;28;20445;-69
2023/12/11 08:28:32;;;;;;;2.73;1.00;;;10.20;27.10;;;;;;5031809;28;21184;-70
2023/12/11 08:30:57;;;;;;;2.20;1.10;;;10.10;28.10;;;;;;5032309;28;20504;-70
2023/12/11 08:33:23;;;;;;;2.50;1.23;;;10.10;28.90;;;;;;5014845;28;20175;-70
2023/12/11 08:35:48;;;;;;;2.37;1.03;;;9.90;29.70;;;;;;5033611;28;20231;-70
2023/12/11 08:38:17;;;;;;;1.87;1.00;;;10.00;29.20;;;;;;5028697;28;20218;-70
2023/12/11 08:40:43;;;;;;;3.00;0.83;;;10.20;29.40;;;;;;5024325;28;20631;-70
2023/12/11 08:43:11;;;;;;;3.70;1.20;;;10.20;29.20;;;;;;5031029;28;20413;-71
2023/12/11 08:45:37;;;;;;;3.30;1.27;;;10.20;30.30;;;;;;5016829;28;20473;-69
2023/12/11 08:48:03;;;;;;;2.83;1.40;;;10.20;31.20;;;;;;5033258;28;20413;-69
2023/12/11 08:50:28;;;;;;;2.10;1.10;;;10.30;31.20;;;;;;5035405;28;20164;-71
2023/12/11 08:52:54;;;;;;;3.47;1.00;;;10.40;30.00;;;;;;5035175;28;20421;-72
2023/12/11 08:55:19;;;;;;;2.77;1.23;;;10.50;29.40;;;;;;5035255;28;20238;-72
2023/12/11 08:57:45;;;;;;;3.50;1.20;;;10.60;29.60;;;;;;5035432;28;20545;-72
2023/12/11 09:00:11;;;;;;;2.00;0.83;;;10.60;29.50;;;;;;5035298;28;20180;-72
2023/12/11 09:02:37;;;;;;;2.00;0.87;;;10.50;29.60;;;;;;5035180;28;20194;-72
2023/12/11 09:05:03;;;;;;;2.97;1.27;;;10.50;30.00;;;;;;5034965;28;20988;-72
2023/12/11 09:07:29;;;;;;;2.63;0.80;;;10.60;28.70;;;;;;5035113;28;20682;-72
2023/12/11 09:09:55;;;;;;;1.77;0.80;;;10.60;29.80;;;;;;5017255;28;20418;-72
2023/12/11 09:12:21;;;;;;;2.90;0.97;;;10.60;29.90;;;;;;5035212;28;20248;-72
2023/12/11 09:14:47;;;;;;;2.47;1.00;;;10.70;29.40;;;;;;5034965;28;20449;-72
2023/12/11 09:17:12;;;;;;;2.10;1.10;;;10.80;28.60;;;;;;5034721;28;20471;-72
2023/12/11 09:19:38;;;;;;;2.53;1.37;;;10.80;28.60;;;;;;5034875;28;20541;-71
2023/12/11 09:22:04;;;;;;;4.10;1.23;;;10.80;28.70;;;;;;5034872;28;20588;-71
2023/12/11 09:24:29;;;;;;;2.90;1.00;;;10.80;27.90;;;;;;5035297;28;20203;-72
2023/12/11 09:26:55;;;;;;;2.20;0.93;;;10.90;27.50;;;;;;5034660;28;20593;-72
2023/12/11 09:29:20;;;;;;;2.60;1.47;;;10.80;27.30;;;;;;5034721;28;20257;-72
2023/12/11 09:31:46;;;;;;;3.40;0.90;;;10.70;27.90;;;;;;5034679;28;20176;-72
2023/12/11 09:34:12;;;;;;;2.10;0.90;;;10.60;25.80;;;;;;5034644;28;20216;-71
2023/12/11 09:36:38;;;;;;;2.40;1.20;;;10.60;26.00;;;;;;5034730;28;20173;-72
2023/12/11 09:39:04;;;;;;;3.10;1.47;;;10.60;26.30;;;;;;5035234;28;20515;-72
2023/12/11 09:41:33;;;;;;;3.03;1.50;;;10.60;26.30;;;;;;5034479;28;20313;-72
2023/12/11 09:44:01;;;;;;;3.60;1.30;;;10.70;27.10;;;;;;5034402;28;20968;-71
2023/12/11 09:46:29;;;;;;;3.00;1.33;;;10.70;26.50;;;;;;5034492;28;20476;-71
2023/12/11 09:48:55;;;;;;;4.00;1.57;;;10.90;27.30;;;;;;5034254;28;20410;-71
2023/12/11 09:51:21;;;;;;;2.20;1.27;;;11.00;26.90;;;;;;5034391;28;20418;-72
2023/12/11 09:53:48;;;;;;;5.93;1.40;;;11.10;25.70;;;;;;5034630;28;20185;-72
2023/12/11 09:56:15;;;;;;;2.77;1.47;;;11.20;26.00;;;;;;5026849;22;20228;-69
2023/12/11 09:58:43;;;;;;;2.47;1.10;;;11.20;27.70;;;;;;4994279;28;20408;-69
2023/12/11 10:01:11;;;;;;;3.77;1.23;;;;;;;;;;4994931;28;20850;-69
2023/12/11 10:03:37;;;;;;;2.03;1.10;;;;;;;;;;4994972;28;20416;-70
2023/12/11 10:06:04;;;;;;;5.33;1.90;;;;;;;;;;4995460;28;20441;-71
2023/12/11 10:08:30;;;;;;;2.47;1.50;;;;;;;;;;4977245;28;20436;-69
2023/12/11 10:11:09;;;;;;;3.47;2.57;;;;;;;;;;4994473;28;20430;-70
2023/12/11 10:13:35;;;;;;;2.80;1.77;;;;;;;;;;4994847;28;20400;-70
2023/12/11 10:16:01;;;;;;;2.93;1.47;;;;;;;;;;4995428;28;20433;-69
2023/12/11 10:18:27;;;;;;;3.23;1.57;;;;;;;;;;4994323;28;20415;-69
2023/12/11 10:20:54;;;;;;;2.67;1.23;;;;;;;;;;4994705;28;20419;-70
2023/12/11 10:23:21;;;;;;;1.90;0.77;;;;;;;;;;4994651;28;20516;-70
2023/12/11 10:25:51;;;;;;;3.00;0.80;;;;;;;;;;4994283;28;20468;-69
2023/12/11 10:28:18;;;;;;;2.23;1.00;;;;;;;;;;4994268;28;20468;-70
2023/12/11 10:30:47;;;;;;;1.87;0.80;;;;;;;;;;4994424;28;20762;-70
2023/12/11 10:33:14;;;;;;;2.17;0.60;;;;;;;;;;4994298;28;20930;-69
2023/12/11 10:35:39;;;;;;;2.27;0.90;;;;;;;;;;4994170;28;20435;-70
2023/12/11 10:38:05;;;;;;;2.20;1.23;;;;;;;;;;4994355;28;20421;-69
2023/12/11 10:40:38;;;;;;;1.90;0.67;;;;;;;;;;4994192;28;20425;-69
2023/12/11 10:43:04;;;;;;;2.07;0.80;;;;;;;;;;4994213;28;20433;-70
2023/12/11 10:45:30;;;;;;;2.10;0.90;;;;;;;;;;4993914;28;20899;-69
2023/12/11 10:47:56;;;;;;;1.90;0.83;;;;;;;;;;4993837;28;20502;-69
2023/12/11 10:50:22;;;;;;;1.90;0.70;;;;;;;;;;4993613;28;20425;-70
2023/12/11 10:52:48;;;;;;;2.10;1.20;;;;;;;;;;4993738;28;20423;-68
2023/12/11 10:55:14;;;;;;;2.27;0.80;;;;;;;;;;4976158;28;20979;-69
2023/12/11 10:57:41;;;;;;;3.00;0.90;;;;;;;;;;4993518;28;20423;-68
2023/12/11 11:00:08;;;;;;;1.73;0.73;;;;;;;;;;4993592;28;20423;-69
2023/12/11 11:02:34;;;;;;;2.23;0.70;;;;;;;;;;4993534;28;20835;-69
2023/12/11 11:05:01;;;;;;;1.97;0.70;;;;;;;;;;4993864;28;20972;-68
2023/12/11 11:07:32;;;;;;;1.60;0.60;;;;;;;;;;4993269;28;20416;-69
2023/12/11 11:10:03;;;;;;;1.80;0.70;;;;;;;;;;4993190;28;20408;-69
2023/12/11 11:12:34;;;;;;;1.70;0.60;;;;;;;;;;4997140;28;20437;-71
2023/12/11 11:15:00;;;;;;;2.07;0.60;;;;;;;;;;4972716;28;20451;-69
2023/12/11 11:17:46;;;;;;;2.03;0.90;;;;;;;;;;4974247;28;20431;-69
2023/12/11 11:20:13;;;;;;;2.67;0.90;;;;;;;;;;4974258;28;20416;-68
2023/12/11 11:22:40;;;;;;;1.67;0.60;;;;;;;;;;4982417;28;20415;-69
2023/12/11 11:25:24;;;;;;;1.90;0.70;;;;;;;;;;5012698;28;20488;-68
2023/12/11 11:27:50;;;;;;;1.50;0.50;;;;;;;;;;5012659;28;20558;-69
2023/12/11 11:30:35;;;;;;;2.03;0.77;;;;;;;;;;5012748;28;20435;-68
2023/12/11 11:33:01;;;;;;;1.80;0.70;;;;;;;;;;5012534;28;20418;-69
2023/12/11 11:35:42;;;;;;;1.80;0.83;;;;;;;;;;5013344;28;20488;-68
2023/12/11 11:38:08;;;;;;;2.00;0.90;;;;;;;;;;5012493;28;20549;-68
2023/12/11 11:40:34;;;;;;;2.70;0.90;;;;;;;;;;5012633;28;20502;-69
2023/12/11 11:43:00;;;;;;;2.17;0.80;;;;;;;;;;5012502;28;20417;-71
2023/12/11 11:45:27;;;;;;;2.57;0.60;;;;;;;;;;5012678;28;20474;-71
2023/12/11 11:47:53;;;;;;;2.00;0.80;;;;;;;;;;5004380;28;20424;-70
2023/12/11 11:50:19;;;;;;;2.80;0.73;;;;;;;;;;4975902;28;20500;-74
2023/12/11 11:52:46;;;;;;;1.80;0.60;;;;;;;;;;4993289;28;20454;-68
2023/12/11 11:55:13;;;;;;;2.73;0.97;;;;;;;;;;4983108;28;20541;-67
2023/12/11 11:57:39;;;;;;;1.60;0.80;;;;;;;;;;4987896;28;20443;-69
2023/12/11 12:00:06;;;;;;;2.23;0.70;;;;;;;;;;4991385;28;20518;-69
2023/12/11 12:02:32;;;;;;;2.57;0.97;;;;;;;;;;4959796;28;20448;-69
2023/12/11 12:05:08;;;;;;;2.33;0.70;;;;;;;;;;4992333;28;20590;-69
2023/12/11 12:07:35;;;;;;;1.70;0.53;;;;;;;;;;4992678;28;20422;-67
2023/12/11 12:10:01;;;;;;;1.90;0.70;;;;;;;;;;4992830;28;20496;-69
2023/12/11 12:12:27;;;;;;;2.17;0.87;;;;;;;;;;4987617;28;20996;-70
2023/12/11 12:15:00;;;;;;;3.20;0.77;;;;;;;;;;4992635;28;20432;-68
2023/12/11 12:17:26;;;;;;;2.53;0.80;;;;;;;;;;4992556;28;20423;-67
2023/12/11 12:19:52;;;;;;;3.53;1.07;;;;;;;;;;4992676;28;20944;-68
2023/12/11 12:22:19;;;;;;;2.40;0.80;;;;;;;;;;4991647;28;20463;-70
2023/12/11 12:24:48;;;;;;;3.30;0.93;;;;;;;;;;4975103;28;20858;-70
2023/12/11 12:27:18;;;;;;;2.13;0.77;;;;;;;;;;4992472;28;20447;-70
2023/12/11 12:29:44;;;;;;;2.60;1.23;;;;;;;;;;4992563;28;20403;-70
2023/12/11 12:32:12;;;;;;;4.60;1.00;;;;;;;;;;4992680;28;20898;-70
2023/12/11 12:34:39;;;;;;;3.30;1.17;;;;;;;;;;4993933;28;20450;-70
2023/12/11 12:37:06;;;;;;;3.67;0.87;;;;;;;;;;4974917;28;20523;-69
2023/12/11 12:39:32;;;;;;;1.70;0.60;;;;;;;;;;4992619;28;20419;-69
2023/12/11 12:41:58;;;;;;;2.20;0.97;;;;;;;;;;4993061;28;20424;-70
2023/12/11 12:44:24;;;;;;;2.73;0.90;;;;;;;;;;4988702;28;20605;-69
2023/12/11 12:46:50;;;;;;;1.70;0.80;;;;;;;;;;4992240;28;20416;-70
2023/12/11 12:49:16;;;;;;;2.03;0.83;;;;;;;;;;4992947;28;20454;-70
2023/12/11 12:51:50;;;;;;;1.63;0.60;;;;;;;;;;4993314;28;20468;-70
2023/12/11 12:54:16;;;;;;;2.63;1.00;;;;;;;;;;4973948;28;20780;-70
2023/12/11 12:56:43;;;;;;;2.73;1.10;;;;;;;;;;4976367;28;20445;-68
2023/12/11 12:59:09;;;;;;;2.00;0.80;;;;;;;;;;4993730;28;20419;-72
2023/12/11 13:01:39;;;;;;;2.40;1.00;;;;;;;;;;4993675;28;20479;-71
2023/12/11 13:04:07;;;;;;;2.00;0.97;;;;;;;;;;4992292;28;20458;-71
2023/12/11 13:06:33;;;;;;;5.43;1.60;;;;;;;;;;4992591;28;20458;-69
2023/12/11 13:08:59;;;;;;;2.07;0.90;;;;;;;;;;4992782;28;20420;-69
2023/12/11 13:11:45;;;;;;;3.60;1.60;;;;;;;;;;5002199;28;20448;-70
2023/12/11 13:14:11;;;;;;;5.23;1.00;;;;;;;;;;5012675;28;20430;-70